Wicomico — WDC7747 — position and weather

sailwx.info

Track history (hours):
 
Tides and Currents Weather Stations Pressure Air Temp Water Temp Dewpoint Dewpoint Depression Visibility Wind Speed Wind Dir Waves Ship Positions

Wicomico

Owner: Vane Brothers Company TUG Wicomico, Philadelphia, PA. More information available from US FCC via Universal Licensing System.

Last reported at 2017-Nov-20 00:30 UTC. Time now 2017-Nov-20 04:01 UTC.
Position N 39°44' W 075°30'.

Length 33 m; draft 4.5 m.

Type: Tow > 200 m length. MMSI: 367076210.

Date/timePositionNaut miles runAvg speedWind from/ knotsBaromVisibWave heightAir tempDewpointWater temp
2017-Nov-20 00:30N 39°44' W 075°30'2 3.5
2017-Nov-20 00:01N 39°42' W 075°30'0 0.0
2017-Nov-19 23:31N 39°42' W 075°30'0 0.0
2017-Nov-19 23:00N 39°42' W 075°30'0 0.0
2017-Nov-19 22:31N 39°42' W 075°30'0 0.0
2017-Nov-19 22:01N 39°42' W 075°30'0 0.0
2017-Nov-19 21:31N 39°42' W 075°30'0 0.1
2017-Nov-19 21:01N 39°42' W 075°30'2 4.0
2017-Nov-19 20:31N 39°44' W 075°30'4 7.5
2017-Nov-19 20:01N 39°47' W 075°27'3 5.3
2017-Nov-19 19:31N 39°49' W 075°24'0 0.1
2017-Nov-19 19:01N 39°49' W 075°24'0 0.0
2017-Nov-19 18:30N 39°49' W 075°24'0 0.9
2017-Nov-19 18:01N 39°49' W 075°24'4 8.4
2017-Nov-19 17:31N 39°51' W 075°19'4 7.6
2017-Nov-19 17:00N 39°52' W 075°14'2 4.8
2017-Nov-19 16:31N 39°54' W 075°12'0 0.0
2017-Nov-19 16:01N 39°54' W 075°12'0 0.0
2017-Nov-19 15:30N 39°54' W 075°12'0 0.0
2017-Nov-19 15:00N 39°54' W 075°12'0 0.0
2017-Nov-19 14:31N 39°54' W 075°12'0 0.0
2017-Nov-19 14:00N 39°54' W 075°12'0 0.0
2017-Nov-19 13:31N 39°54' W 075°12'0 0.0
2017-Nov-19 13:00N 39°54' W 075°12'0 0.0
2017-Nov-19 12:31N 39°54' W 075°12'0 0.0
2017-Nov-19 12:00N 39°54' W 075°12'0 0.0
2017-Nov-19 11:30N 39°54' W 075°12'0 0.0
2017-Nov-19 11:01N 39°54' W 075°12'0 0.0
2017-Nov-19 10:30N 39°54' W 075°12'0 0.0
2017-Nov-19 10:00N 39°54' W 075°12'0 0.0
2017-Nov-19 09:31N 39°54' W 075°12'0 0.0
2017-Nov-19 09:00N 39°54' W 075°12'0 0.0
2017-Nov-19 08:31N 39°54' W 075°12'0 0.0
2017-Nov-19 08:00N 39°54' W 075°12'0 0.0
2017-Nov-19 07:30N 39°54' W 075°12'0 0.0
2017-Nov-19 07:00N 39°54' W 075°12'0 0.0
2017-Nov-19 06:30N 39°54' W 075°12'0 0.0
2017-Nov-19 06:01N 39°54' W 075°12'0 0.0
2017-Nov-19 05:30N 39°54' W 075°12'0 0.0
2017-Nov-19 05:00N 39°54' W 075°12'0 0.0
2017-Nov-19 04:30N 39°54' W 075°12'0 0.0
2017-Nov-19 04:01N 39°54' W 075°12'2 4.7
2017-Nov-19 03:31N 39°52' W 075°14'5 9.4
2017-Nov-19 03:00N 39°51' W 075°20'4 7.5
2017-Nov-19 02:31N 39°49' W 075°24'0 0.4
2017-Nov-19 02:01N 39°49' W 075°24'3 6.0
2017-Nov-19 01:31N 39°51' W 075°21'4 8.5
2017-Nov-19 01:00N 39°51' W 075°16'4 7.4
2017-Nov-19 00:30N 39°54' W 075°12'0 0.3
2017-Nov-19 00:01N 39°54' W 075°12'0 0.1
2017-Nov-18 23:31N 39°54' W 075°12'0 0.0
2017-Nov-18 23:01N 39°54' W 075°12'0 0.0
2017-Nov-18 22:30N 39°54' W 075°12'0 0.0
2017-Nov-18 22:00N 39°54' W 075°12'0 0.0
2017-Nov-18 21:31N 39°54' W 075°12'0 0.0
2017-Nov-18 21:01N 39°54' W 075°12'0 0.0
2017-Nov-18 20:31N 39°54' W 075°12'0 0.0
2017-Nov-18 20:01N 39°54' W 075°12'0 0.0
2017-Nov-18 19:30N 39°54' W 075°12'0 0.0
2017-Nov-18 19:01N 39°54' W 075°12'0 0.0
2017-Nov-18 18:30N 39°54' W 075°12'0 0.0
2017-Nov-18 18:00N 39°54' W 075°12'0 0.0
2017-Nov-18 17:30N 39°54' W 075°12'0 0.0
2017-Nov-18 17:01N 39°54' W 075°12'0 0.0
2017-Nov-18 16:30N 39°54' W 075°12'0 0.0
2017-Nov-18 16:00N 39°54' W 075°12'0 0.0
2017-Nov-18 15:30N 39°54' W 075°12'0 0.0
2017-Nov-18 15:01N 39°54' W 075°12'0 0.0
2017-Nov-18 14:30N 39°54' W 075°12'0 0.0
2017-Nov-18 14:01N 39°54' W 075°12'0 0.0
2017-Nov-18 13:30N 39°54' W 075°12'0 0.0
2017-Nov-18 13:01N 39°54' W 075°12'0 0.0
2017-Nov-18 12:30N 39°54' W 075°12'0 0.0
2017-Nov-18 12:00N 39°54' W 075°12'0 0.0
2017-Nov-18 11:30N 39°54' W 075°12'0 0.0
2017-Nov-18 11:00N 39°54' W 075°12'0 0.0
2017-Nov-18 10:31N 39°54' W 075°12'0 0.0
2017-Nov-18 10:01N 39°54' W 075°12'0 0.0
2017-Nov-18 09:30N 39°54' W 075°12'0 0.0
2017-Nov-18 09:00N 39°54' W 075°12'0 0.0
2017-Nov-18 08:30N 39°54' W 075°12'0 0.0
2017-Nov-18 08:00N 39°54' W 075°12'0 0.0
2017-Nov-18 07:30N 39°54' W 075°12'0 0.0
2017-Nov-18 07:00N 39°54' W 075°12'0 0.0
2017-Nov-18 06:30N 39°54' W 075°12'0 0.0
2017-Nov-18 06:00N 39°54' W 075°12'0 0.0
2017-Nov-18 05:31N 39°54' W 075°12'0 0.0
2017-Nov-18 05:01N 39°54' W 075°12'0 0.0
2017-Nov-18 04:30N 39°54' W 075°12'0 0.4
2017-Nov-18 04:00N 39°54' W 075°12'3 6.2
2017-Nov-18 03:30N 39°51' W 075°15'510.5
2017-Nov-18 03:01N 39°50' W 075°21'510.4
2017-Nov-18 02:30N 39°47' W 075°27'510.3
2017-Nov-18 02:01N 39°43' W 075°30'1 2.7
2017-Nov-18 01:30N 39°42' W 075°31'5 9.7
2017-Nov-18 01:00N 39°38' W 075°35'510.0
2017-Nov-18 00:30N 39°33' W 075°32'5 9.7
2017-Nov-18 00:00N 39°28' W 075°34'5 9.1
2017-Nov-17 23:31N 39°24' W 075°30'5 9.4
2017-Nov-17 23:00N 39°21' W 075°26'5 9.3
2017-Nov-17 22:31N 39°17' W 075°22'4 9.0
2017-Nov-17 22:01N 39°14' W 075°18'4 8.9
2017-Nov-17 21:30N 39°10' W 075°16'5 9.3
2017-Nov-17 21:01N 39°06' W 075°12'4 8.8
2017-Nov-17 20:30N 39°02' W 075°10'60 6.5
2017-Nov-17 11:20N 39°37' W 074°07'3 9.4
2017-Nov-17 11:00N 39°40' W 074°05'5 9.4
2017-Nov-17 10:26N 39°45' W 074°03'44 9.7
2017-Nov-17 05:52N 40°29' W 073°55'3 9.2
2017-Nov-17 05:30N 40°31' W 073°58'4 8.4
2017-Nov-17 05:00N 40°34' W 074°02'4 8.2
2017-Nov-17 04:30N 40°38' W 074°04'2 3.9
2017-Nov-17 04:00N 40°39' W 074°05'0 0.0
2017-Nov-17 03:30N 40°39' W 074°05'1 2.7
2017-Nov-17 03:00N 40°39' W 074°03'3 5.6
2017-Nov-17 02:30N 40°40' W 074°00'0 0.0
2017-Nov-17 02:01N 40°40' W 074°00'0 0.0
2017-Nov-17 01:30N 40°40' W 074°00'0 0.0
2017-Nov-17 01:00N 40°40' W 074°00'0 0.0
2017-Nov-17 00:30N 40°40' W 074°00'0 0.0
2017-Nov-17 00:01N 40°40' W 074°00'0 0.0
2017-Nov-16 23:30N 40°40' W 074°00'0 0.0
2017-Nov-16 23:01N 40°40' W 074°00'0 0.0
2017-Nov-16 22:30N 40°40' W 074°00'0 0.0
2017-Nov-16 22:00N 40°40' W 074°00'0 0.0
2017-Nov-16 21:30N 40°40' W 074°00'0 0.0
2017-Nov-16 21:00N 40°40' W 074°00'3 6.5
2017-Nov-16 20:31N 40°39' W 074°04'1 2.1
2017-Nov-16 20:00N 40°39' W 074°05'0 0.0
2017-Nov-16 19:30N 40°39' W 074°05'0 0.0
2017-Nov-16 19:00N 40°39' W 074°05'0 0.0
2017-Nov-16 18:30N 40°39' W 074°05'0 0.0
2017-Nov-16 17:59N 40°39' W 074°05'0 0.0
2017-Nov-16 17:30N 40°39' W 074°05'0 0.0
2017-Nov-16 17:00N 40°39' W 074°05'2 3.6
2017-Nov-16 16:30N 40°39' W 074°03'3 5.5
2017-Nov-16 16:00N 40°40' W 074°00'0 0.0
2017-Nov-16 15:30N 40°40' W 074°00'0 0.0
2017-Nov-16 15:00N 40°40' W 074°00'0 0.0
2017-Nov-16 14:31N 40°40' W 074°00'0 0.0
2017-Nov-16 14:00N 40°40' W 074°00'0 0.0
2017-Nov-16 13:30N 40°40' W 074°00'0 0.0
2017-Nov-16 13:00N 40°40' W 074°00'0 0.0
2017-Nov-16 12:31N 40°40' W 074°00'1 1.1
2017-Nov-16 12:01N 40°40' W 074°01'3 6.5
2017-Nov-16 11:30N 40°39' W 074°05'0 0.0
2017-Nov-16 11:00N 40°39' W 074°05'2 3.1
2017-Nov-16 10:30N 40°39' W 074°03'0 0.6
2017-Nov-16 10:00N 40°40' W 074°03'0 0.0
2017-Nov-16 09:30N 40°40' W 074°03'0 0.1
2017-Nov-16 09:00N 40°40' W 074°03'0 0.3
2017-Nov-16 08:31N 40°39' W 074°03'0 0.1
2017-Nov-16 08:00N 40°39' W 074°03'3 6.3
2017-Nov-16 07:30N 40°36' W 074°03'2 2.9
2017-Nov-16 06:58N 40°35' W 074°02'1 2.8
2017-Nov-16 06:30N 40°34' W 074°02'2 3.7
2017-Nov-16 05:59N 40°32' W 074°01'2 4.0
2017-Nov-16 05:30N 40°31' W 073°59'5 3.5
2017-Nov-16 04:11N 40°28' W 073°54'1 4.0
2017-Nov-16 03:58N 40°27' W 073°54'38 7.1
2017-Nov-15 22:33N 39°49' W 073°58'0 7.1
2017-Nov-15 22:29N 39°49' W 073°58'4 7.0
2017-Nov-15 21:56N 39°45' W 073°59'4 6.8
2017-Nov-15 21:21N 39°42' W 074°01'2 6.8
2017-Nov-15 21:00N 39°39' W 074°02'4 6.6
2017-Nov-15 20:26N 39°36' W 074°04'3 6.6
2017-Nov-15 19:59N 39°33' W 074°06'3 6.6
2017-Nov-15 19:30N 39°31' W 074°08'43 6.3
2017-Nov-15 12:44N 38°58' W 074°43'2 6.5
2017-Nov-15 12:30N 38°56' W 074°44'18 3.9
2017-Nov-15 07:51N 38°58' W 075°07'4 5.3
2017-Nov-15 07:09N 39°01' W 075°10'0 1.2
2017-Nov-15 06:55N 39°01' W 075°10'4 6.3
2017-Nov-15 06:16N 39°05' W 075°11'2 8.6
2017-Nov-15 06:01N 39°07' W 075°13'5 9.3
2017-Nov-15 05:31N 39°11' W 075°16'5 9.8
2017-Nov-15 05:01N 39°15' W 075°20'510.1
2017-Nov-15 04:30N 39°19' W 075°24'5 9.5
2017-Nov-15 04:01N 39°22' W 075°28'5 9.0
2017-Nov-15 03:31N 39°26' W 075°32'4 7.8
2017-Nov-15 03:00N 39°30' W 075°34'4 7.8
2017-Nov-15 02:31N 39°33' W 075°33'4 7.1
2017-Nov-15 02:00N 39°37' W 075°35'3 6.3
2017-Nov-15 01:31N 39°39' W 075°33'3 6.4
2017-Nov-15 01:00N 39°42' W 075°31'3 6.3
2017-Nov-15 00:31N 39°45' W 075°29'3 6.2
2017-Nov-15 00:00N 39°48' W 075°27'2 3.4
2017-Nov-14 23:29N 39°48' W 075°25'0 0.1
2017-Nov-14 23:00N 39°48' W 075°25'0 0.3
2017-Nov-14 22:30N 39°48' W 075°25'0 0.1
2017-Nov-14 22:00N 39°48' W 075°25'0 0.0
2017-Nov-14 21:28N 39°48' W 075°25'0 0.0
2017-Nov-14 20:58N 39°48' W 075°25'0 0.4
2017-Nov-14 20:30N 39°48' W 075°25'1 1.2
2017-Nov-14 19:59N 39°49' W 075°24'0 0.0
2017-Nov-14 19:29N 39°49' W 075°24'0 0.0
2017-Nov-14 19:00N 39°49' W 075°24'0 0.0
2017-Nov-14 18:30N 39°49' W 075°24'0 0.0
2017-Nov-14 18:00N 39°49' W 075°24'0 0.0
2017-Nov-14 17:30N 39°49' W 075°24'0 0.0
2017-Nov-14 16:58N 39°49' W 075°24'0 0.0
2017-Nov-14 16:28N 39°49' W 075°24'0 0.0
2017-Nov-14 15:59N 39°49' W 075°24'0 0.0
2017-Nov-14 15:29N 39°49' W 075°24'0 0.0
2017-Nov-14 14:59N 39°49' W 075°24'0 0.0
2017-Nov-14 14:29N 39°49' W 075°24'0 0.0
2017-Nov-14 14:00N 39°49' W 075°24'0 0.0
2017-Nov-14 13:30N 39°49' W 075°24'0 0.0
2017-Nov-14 13:01N 39°49' W 075°24'0 0.0
2017-Nov-14 12:28N 39°49' W 075°24'0 0.0
2017-Nov-14 11:58N 39°49' W 075°24'0 0.0
2017-Nov-14 11:29N 39°49' W 075°24'0 0.0
2017-Nov-14 10:59N 39°49' W 075°24'0 0.0
2017-Nov-14 10:29N 39°49' W 075°24'0 0.0
2017-Nov-14 10:00N 39°49' W 075°24'0 0.0
2017-Nov-14 09:30N 39°49' W 075°24'0 0.0
2017-Nov-14 09:00N 39°49' W 075°24'0 0.0
2017-Nov-14 08:30N 39°49' W 075°24'0 0.0
2017-Nov-14 07:58N 39°49' W 075°24'0 0.0
2017-Nov-14 07:28N 39°49' W 075°24'0 0.0
2017-Nov-14 06:59N 39°49' W 075°24'0 0.0
2017-Nov-14 06:29N 39°49' W 075°24'0 0.0
2017-Nov-14 05:59N 39°49' W 075°24'0 0.0
2017-Nov-14 05:30N 39°49' W 075°24'0 0.0
2017-Nov-14 05:00N 39°49' W 075°24'0 0.0
2017-Nov-14 04:30N 39°49' W 075°24'0 0.0
2017-Nov-14 03:58N 39°49' W 075°24'0 0.0
2017-Nov-14 03:28N 39°49' W 075°24'0 0.0
2017-Nov-14 02:58N 39°49' W 075°24'0 0.0
2017-Nov-14 02:29N 39°49' W 075°24'0 0.0
2017-Nov-14 01:59N 39°49' W 075°24'0 0.0
2017-Nov-14 01:29N 39°49' W 075°24'0 0.0
2017-Nov-14 01:00N 39°49' W 075°24'0 0.0
2017-Nov-14 00:30N 39°49' W 075°24'0 0.0
2017-Nov-14 00:00N 39°49' W 075°24'0 0.0
2017-Nov-13 23:30N 39°49' W 075°24'0 0.0
2017-Nov-13 22:58N 39°49' W 075°24'0 0.0
2017-Nov-13 22:28N 39°49' W 075°24'0 0.0
2017-Nov-13 21:59N 39°49' W 075°24'8 0.4
2017-Nov-13 02:00N 39°43' W 075°31'0 0.0
2017-Nov-13 01:30N 39°43' W 075°31'0 0.0
2017-Nov-13 00:58N 39°43' W 075°31'0 0.0
2017-Nov-13 00:28N 39°43' W 075°31'0 0.0
2017-Nov-12 23:59N 39°43' W 075°31'0 0.0
2017-Nov-12 23:29N 39°43' W 075°31'0 0.0
2017-Nov-12 22:56N 39°43' W 075°31'0 0.0
2017-Nov-12 22:29N 39°43' W 075°31'0 0.0
2017-Nov-12 22:00N 39°43' W 075°31'0 0.0
2017-Nov-12 21:30N 39°43' W 075°31'0 0.0
2017-Nov-12 21:00N 39°43' W 075°31'0 0.0
2017-Nov-12 20:28N 39°43' W 075°31'0 0.0
2017-Nov-12 19:58N 39°43' W 075°31'0 0.0
2017-Nov-12 19:28N 39°43' W 075°31'0 0.0
2017-Nov-12 18:59N 39°43' W 075°31'0 0.0
2017-Nov-12 18:29N 39°43' W 075°31'0 0.0
2017-Nov-12 17:59N 39°43' W 075°31'0 0.0
2017-Nov-12 17:30N 39°43' W 075°31'0 0.0
2017-Nov-12 17:00N 39°43' W 075°31'0 0.0
2017-Nov-12 16:30N 39°43' W 075°31'0 0.0
2017-Nov-12 15:58N 39°43' W 075°31'0 0.0
2017-Nov-12 15:28N 39°43' W 075°31'0 0.0
2017-Nov-12 14:58N 39°43' W 075°31'0 0.0
2017-Nov-12 14:29N 39°43' W 075°31'0 0.0
2017-Nov-12 13:59N 39°43' W 075°31'0 0.0
2017-Nov-12 13:29N 39°43' W 075°31'0 0.0
2017-Nov-12 13:00N 39°43' W 075°31'1 2.8
2017-Nov-12 12:30N 39°44' W 075°30'4 9.0
2017-Nov-12 12:00N 39°48' W 075°26'4 8.5
2017-Nov-12 11:31N 39°50' W 075°22'4 7.9
2017-Nov-12 11:00N 39°51' W 075°17'3 6.4
2017-Nov-12 10:30N 39°52' W 075°13'0 0.1
2017-Nov-12 10:00N 39°52' W 075°13'0 0.0
2017-Nov-12 09:30N 39°52' W 075°13'0 0.1
2017-Nov-12 09:00N 39°52' W 075°13'0 0.1
2017-Nov-12 08:28N 39°52' W 075°13'0 0.0
2017-Nov-12 07:58N 39°52' W 075°13'0 0.0
2017-Nov-12 07:28N 39°52' W 075°13'0 0.0
2017-Nov-12 06:59N 39°52' W 075°13'0 0.0
2017-Nov-12 06:29N 39°52' W 075°13'0 0.0
2017-Nov-12 05:59N 39°52' W 075°13'0 0.0
2017-Nov-12 05:30N 39°52' W 075°13'0 0.0
2017-Nov-12 05:00N 39°52' W 075°13'0 0.0
2017-Nov-12 04:30N 39°52' W 075°13'0 0.0
2017-Nov-12 04:00N 39°52' W 075°13'0 0.0
2017-Nov-12 03:28N 39°52' W 075°13'0 0.1
2017-Nov-12 02:58N 39°52' W 075°13'0 0.1
2017-Nov-12 02:29N 39°52' W 075°13'0 0.0
2017-Nov-12 01:59N 39°52' W 075°13'0 0.1
2017-Nov-12 01:29N 39°52' W 075°13'0 0.1
2017-Nov-12 01:00N 39°52' W 075°13'0 0.0
2017-Nov-12 00:30N 39°52' W 075°13'0 0.0
2017-Nov-12 00:00N 39°52' W 075°13'0 0.0
2017-Nov-11 23:30N 39°52' W 075°13'0 0.0
2017-Nov-11 22:58N 39°52' W 075°13'0 0.0
2017-Nov-11 22:28N 39°52' W 075°13'0 0.0
2017-Nov-11 21:59N 39°52' W 075°13'0 0.0
2017-Nov-11 21:26N 39°52' W 075°13'0 0.0
2017-Nov-11 20:59N 39°52' W 075°13'0 0.0
2017-Nov-11 20:30N 39°52' W 075°13'0 0.1
2017-Nov-11 20:00N 39°52' W 075°13'0 0.1
2017-Nov-11 19:30N 39°52' W 075°13'0 0.1
2017-Nov-11 19:01N 39°52' W 075°13'0 0.0
2017-Nov-11 18:28N 39°52' W 075°13'0 0.0
2017-Nov-11 18:00N 39°52' W 075°13'0 0.0
2017-Nov-11 17:30N 39°52' W 075°13'0 0.0
2017-Nov-11 16:58N 39°52' W 075°13'0 0.0
2017-Nov-11 16:25N 39°52' W 075°13'0 0.0
2017-Nov-11 15:59N 39°52' W 075°13'0 0.0
2017-Nov-11 15:29N 39°52' W 075°13'0 0.0
2017-Nov-11 14:59N 39°52' W 075°13'0 0.0
2017-Nov-11 14:30N 39°52' W 075°13'0 0.1
2017-Nov-11 14:00N 39°52' W 075°13'0 0.0
2017-Nov-11 13:30N 39°52' W 075°13'0 0.0
2017-Nov-11 13:00N 39°52' W 075°13'0 0.1
2017-Nov-11 12:28N 39°52' W 075°13'0 0.0
2017-Nov-11 11:58N 39°52' W 075°13'0 0.0
2017-Nov-11 11:29N 39°52' W 075°13'0 0.0
2017-Nov-11 10:59N 39°52' W 075°13'0 0.0
2017-Nov-11 10:29N 39°52' W 075°13'0 0.0
2017-Nov-11 10:00N 39°52' W 075°13'0 0.0
2017-Nov-11 09:30N 39°52' W 075°13'0 0.0
2017-Nov-11 09:00N 39°52' W 075°13'0 0.0
2017-Nov-11 08:31N 39°52' W 075°13'0 0.0
2017-Nov-11 07:58N 39°52' W 075°13'0 0.1
2017-Nov-11 07:28N 39°52' W 075°13'0 0.0
2017-Nov-11 06:59N 39°52' W 075°13'0 0.1
2017-Nov-11 06:29N 39°52' W 075°13'0 0.0
2017-Nov-11 05:59N 39°52' W 075°13'0 0.0
2017-Nov-11 05:30N 39°52' W 075°13'0 0.0
2017-Nov-11 05:00N 39°52' W 075°13'0 0.0
2017-Nov-11 04:30N 39°52' W 075°13'0 0.0
2017-Nov-11 04:00N 39°52' W 075°13'0 0.0
2017-Nov-11 03:28N 39°52' W 075°13'0 0.0
2017-Nov-11 02:58N 39°52' W 075°13'0 0.0
2017-Nov-11 02:29N 39°52' W 075°13'0 0.0
2017-Nov-11 01:59N 39°52' W 075°13'0 0.0
2017-Nov-11 01:29N 39°52' W 075°13'0 0.0
2017-Nov-11 01:00N 39°52' W 075°13'0 0.0
2017-Nov-11 00:30N 39°52' W 075°13'0 0.0
2017-Nov-11 00:00N 39°52' W 075°13'0 0.1
2017-Nov-10 23:28N 39°52' W 075°13'0 0.0
2017-Nov-10 22:58N 39°52' W 075°13'0 0.1
2017-Nov-10 22:28N 39°52' W 075°13'0 0.0
2017-Nov-10 21:59N 39°52' W 075°13'0 0.0
2017-Nov-10 21:26N 39°52' W 075°13'0 0.0
2017-Nov-10 20:59N 39°52' W 075°13'0 0.0
2017-Nov-10 20:30N 39°52' W 075°13'0 0.1
2017-Nov-10 19:57N 39°52' W 075°13'0 0.0
2017-Nov-10 19:30N 39°52' W 075°13'0 0.0
2017-Nov-10 18:58N 39°52' W 075°13'0 0.0
2017-Nov-10 18:28N 39°52' W 075°13'0 0.1
2017-Nov-10 17:58N 39°52' W 075°13'0 0.0
2017-Nov-10 17:29N 39°52' W 075°13'0 0.0
2017-Nov-10 16:59N 39°52' W 075°13'0 0.0
2017-Nov-10 16:29N 39°52' W 075°13'0 0.0
2017-Nov-10 16:00N 39°52' W 075°13'0 0.1
2017-Nov-10 15:30N 39°52' W 075°13'0 0.0
2017-Nov-10 15:00N 39°52' W 075°13'0 0.0
2017-Nov-10 14:28N 39°52' W 075°13'0 0.0
2017-Nov-10 13:58N 39°52' W 075°13'0 0.0
2017-Nov-10 13:28N 39°52' W 075°13'0 0.0
2017-Nov-10 12:59N 39°52' W 075°13'0 0.0
2017-Nov-10 12:29N 39°52' W 075°13'0 0.1
2017-Nov-10 11:59N 39°52' W 075°13'0 0.1
2017-Nov-10 11:30N 39°52' W 075°13'0 0.0
2017-Nov-10 11:00N 39°52' W 075°13'0 0.0
2017-Nov-10 10:30N 39°52' W 075°13'0 0.0
2017-Nov-10 09:58N 39°52' W 075°13'0 0.0
2017-Nov-10 09:28N 39°52' W 075°13'0 0.0
2017-Nov-10 08:58N 39°52' W 075°13'0 0.0
2017-Nov-10 08:29N 39°52' W 075°13'0 0.0
2017-Nov-10 07:59N 39°52' W 075°13'0 0.0
2017-Nov-10 07:29N 39°52' W 075°13'0 0.0
2017-Nov-10 07:00N 39°52' W 075°13'0 0.1
2017-Nov-10 06:30N 39°52' W 075°13'0 0.0
2017-Nov-10 06:00N 39°52' W 075°13'0 0.1
2017-Nov-10 05:28N 39°52' W 075°13'0 0.0
2017-Nov-10 04:58N 39°52' W 075°13'0 0.1
2017-Nov-10 04:28N 39°52' W 075°13'0 0.1
2017-Nov-10 03:59N 39°52' W 075°13'0 0.1
2017-Nov-10 03:29N 39°52' W 075°13'0 0.0
2017-Nov-10 02:59N 39°52' W 075°13'0 0.0
2017-Nov-10 02:30N 39°52' W 075°13'0 0.0
2017-Nov-10 02:00N 39°52' W 075°13'0 0.0
2017-Nov-10 01:30N 39°52' W 075°13'0 0.1
2017-Nov-10 00:58N 39°52' W 075°13'  
Track history (hours):
 
Tides and Currents Weather Stations Pressure Air Temp Water Temp Dewpoint Dewpoint Depression Visibility Wind Speed Wind Dir Waves Ship Positions

Wicomico

Owner: Vane Brothers Company TUG Wicomico, Philadelphia, PA. More information available from US FCC via Universal Licensing System.

Last reported at 2017-Nov-20 00:30 UTC. Time now 2017-Nov-20 04:01 UTC.
Position N 39°44' W 075°30'.

Length 33 m; draft 4.5 m.

Type: Tow > 200 m length. MMSI: 367076210.

Date/timePositionNaut miles runAvg speedWind from/ knotsBaromVisibWave heightAir tempDewpointWater temp
2017-Nov-20 00:30N 39°44' W 075°30'2 3.5
2017-Nov-20 00:01N 39°42' W 075°30'0 0.0
2017-Nov-19 23:31N 39°42' W 075°30'0 0.0
2017-Nov-19 23:00N 39°42' W 075°30'0 0.0
2017-Nov-19 22:31N 39°42' W 075°30'0 0.0
2017-Nov-19 22:01N 39°42' W 075°30'0 0.0
2017-Nov-19 21:31N 39°42' W 075°30'0 0.1
2017-Nov-19 21:01N 39°42' W 075°30'2 4.0
2017-Nov-19 20:31N 39°44' W 075°30'4 7.5
2017-Nov-19 20:01N 39°47' W 075°27'3 5.3
2017-Nov-19 19:31N 39°49' W 075°24'0 0.1
2017-Nov-19 19:01N 39°49' W 075°24'0 0.0
2017-Nov-19 18:30N 39°49' W 075°24'0 0.9
2017-Nov-19 18:01N 39°49' W 075°24'4 8.4
2017-Nov-19 17:31N 39°51' W 075°19'4 7.6
2017-Nov-19 17:00N 39°52' W 075°14'2 4.8
2017-Nov-19 16:31N 39°54' W 075°12'0 0.0
2017-Nov-19 16:01N 39°54' W 075°12'0 0.0
2017-Nov-19 15:30N 39°54' W 075°12'0 0.0
2017-Nov-19 15:00N 39°54' W 075°12'0 0.0
2017-Nov-19 14:31N 39°54' W 075°12'0 0.0
2017-Nov-19 14:00N 39°54' W 075°12'0 0.0
2017-Nov-19 13:31N 39°54' W 075°12'0 0.0
2017-Nov-19 13:00N 39°54' W 075°12'0 0.0
2017-Nov-19 12:31N 39°54' W 075°12'0 0.0
2017-Nov-19 12:00N 39°54' W 075°12'0 0.0
2017-Nov-19 11:30N 39°54' W 075°12'0 0.0
2017-Nov-19 11:01N 39°54' W 075°12'0 0.0
2017-Nov-19 10:30N 39°54' W 075°12'0 0.0
2017-Nov-19 10:00N 39°54' W 075°12'0 0.0
2017-Nov-19 09:31N 39°54' W 075°12'0 0.0
2017-Nov-19 09:00N 39°54' W 075°12'0 0.0
2017-Nov-19 08:31N 39°54' W 075°12'0 0.0
2017-Nov-19 08:00N 39°54' W 075°12'0 0.0
2017-Nov-19 07:30N 39°54' W 075°12'0 0.0
2017-Nov-19 07:00N 39°54' W 075°12'0 0.0
2017-Nov-19 06:30N 39°54' W 075°12'0 0.0
2017-Nov-19 06:01N 39°54' W 075°12'0 0.0
2017-Nov-19 05:30N 39°54' W 075°12'0 0.0
2017-Nov-19 05:00N 39°54' W 075°12'0 0.0
2017-Nov-19 04:30N 39°54' W 075°12'0 0.0
2017-Nov-19 04:01N 39°54' W 075°12'2 4.7
2017-Nov-19 03:31N 39°52' W 075°14'5 9.4
2017-Nov-19 03:00N 39°51' W 075°20'4 7.5
2017-Nov-19 02:31N 39°49' W 075°24'0 0.4
2017-Nov-19 02:01N 39°49' W 075°24'3 6.0
2017-Nov-19 01:31N 39°51' W 075°21'4 8.5
2017-Nov-19 01:00N 39°51' W 075°16'4 7.4
2017-Nov-19 00:30N 39°54' W 075°12'0 0.3
2017-Nov-19 00:01N 39°54' W 075°12'0 0.1
2017-Nov-18 23:31N 39°54' W 075°12'0 0.0
2017-Nov-18 23:01N 39°54' W 075°12'0 0.0
2017-Nov-18 22:30N 39°54' W 075°12'0 0.0
2017-Nov-18 22:00N 39°54' W 075°12'0 0.0
2017-Nov-18 21:31N 39°54' W 075°12'0 0.0
2017-Nov-18 21:01N 39°54' W 075°12'0 0.0
2017-Nov-18 20:31N 39°54' W 075°12'0 0.0
2017-Nov-18 20:01N 39°54' W 075°12'0 0.0
2017-Nov-18 19:30N 39°54' W 075°12'0 0.0
2017-Nov-18 19:01N 39°54' W 075°12'0 0.0
2017-Nov-18 18:30N 39°54' W 075°12'0 0.0
2017-Nov-18 18:00N 39°54' W 075°12'0 0.0
2017-Nov-18 17:30N 39°54' W 075°12'0 0.0
2017-Nov-18 17:01N 39°54' W 075°12'0 0.0
2017-Nov-18 16:30N 39°54' W 075°12'0 0.0
2017-Nov-18 16:00N 39°54' W 075°12'0 0.0
2017-Nov-18 15:30N 39°54' W 075°12'0 0.0
2017-Nov-18 15:01N 39°54' W 075°12'0 0.0
2017-Nov-18 14:30N 39°54' W 075°12'0 0.0
2017-Nov-18 14:01N 39°54' W 075°12'0 0.0
2017-Nov-18 13:30N 39°54' W 075°12'0 0.0
2017-Nov-18 13:01N 39°54' W 075°12'0 0.0
2017-Nov-18 12:30N 39°54' W 075°12'0 0.0
2017-Nov-18 12:00N 39°54' W 075°12'0 0.0
2017-Nov-18 11:30N 39°54' W 075°12'0 0.0
2017-Nov-18 11:00N 39°54' W 075°12'0 0.0
2017-Nov-18 10:31N 39°54' W 075°12'0 0.0
2017-Nov-18 10:01N 39°54' W 075°12'0 0.0
2017-Nov-18 09:30N 39°54' W 075°12'0 0.0
2017-Nov-18 09:00N 39°54' W 075°12'0 0.0
2017-Nov-18 08:30N 39°54' W 075°12'0 0.0
2017-Nov-18 08:00N 39°54' W 075°12'0 0.0
2017-Nov-18 07:30N 39°54' W 075°12'0 0.0
2017-Nov-18 07:00N 39°54' W 075°12'0 0.0
2017-Nov-18 06:30N 39°54' W 075°12'0 0.0
2017-Nov-18 06:00N 39°54' W 075°12'0 0.0
2017-Nov-18 05:31N 39°54' W 075°12'0 0.0
2017-Nov-18 05:01N 39°54' W 075°12'0 0.0
2017-Nov-18 04:30N 39°54' W 075°12'0 0.4
2017-Nov-18 04:00N 39°54' W 075°12'3 6.2
2017-Nov-18 03:30N 39°51' W 075°15'510.5
2017-Nov-18 03:01N 39°50' W 075°21'510.4
2017-Nov-18 02:30N 39°47' W 075°27'510.3
2017-Nov-18 02:01N 39°43' W 075°30'1 2.7
2017-Nov-18 01:30N 39°42' W 075°31'5 9.7
2017-Nov-18 01:00N 39°38' W 075°35'510.0
2017-Nov-18 00:30N 39°33' W 075°32'5 9.7
2017-Nov-18 00:00N 39°28' W 075°34'5 9.1
2017-Nov-17 23:31N 39°24' W 075°30'5 9.4
2017-Nov-17 23:00N 39°21' W 075°26'5 9.3
2017-Nov-17 22:31N 39°17' W 075°22'4 9.0
2017-Nov-17 22:01N 39°14' W 075°18'4 8.9
2017-Nov-17 21:30N 39°10' W 075°16'5 9.3
2017-Nov-17 21:01N 39°06' W 075°12'4 8.8
2017-Nov-17 20:30N 39°02' W 075°10'60 6.5
2017-Nov-17 11:20N 39°37' W 074°07'3 9.4
2017-Nov-17 11:00N 39°40' W 074°05'5 9.4
2017-Nov-17 10:26N 39°45' W 074°03'44 9.7
2017-Nov-17 05:52N 40°29' W 073°55'3 9.2
2017-Nov-17 05:30N 40°31' W 073°58'4 8.4
2017-Nov-17 05:00N 40°34' W 074°02'4 8.2
2017-Nov-17 04:30N 40°38' W 074°04'2 3.9
2017-Nov-17 04:00N 40°39' W 074°05'0 0.0
2017-Nov-17 03:30N 40°39' W 074°05'1 2.7
2017-Nov-17 03:00N 40°39' W 074°03'3 5.6
2017-Nov-17 02:30N 40°40' W 074°00'0 0.0
2017-Nov-17 02:01N 40°40' W 074°00'0 0.0
2017-Nov-17 01:30N 40°40' W 074°00'0 0.0
2017-Nov-17 01:00N 40°40' W 074°00'0 0.0
2017-Nov-17 00:30N 40°40' W 074°00'0 0.0
2017-Nov-17 00:01N 40°40' W 074°00'0 0.0
2017-Nov-16 23:30N 40°40' W 074°00'0 0.0
2017-Nov-16 23:01N 40°40' W 074°00'0 0.0
2017-Nov-16 22:30N 40°40' W 074°00'0 0.0
2017-Nov-16 22:00N 40°40' W 074°00'0 0.0
2017-Nov-16 21:30N 40°40' W 074°00'0 0.0
2017-Nov-16 21:00N 40°40' W 074°00'3 6.5
2017-Nov-16 20:31N 40°39' W 074°04'1 2.1
2017-Nov-16 20:00N 40°39' W 074°05'0 0.0
2017-Nov-16 19:30N 40°39' W 074°05'0 0.0
2017-Nov-16 19:00N 40°39' W 074°05'0 0.0
2017-Nov-16 18:30N 40°39' W 074°05'0 0.0
2017-Nov-16 17:59N 40°39' W 074°05'0 0.0
2017-Nov-16 17:30N 40°39' W 074°05'0 0.0
2017-Nov-16 17:00N 40°39' W 074°05'2 3.6
2017-Nov-16 16:30N 40°39' W 074°03'3 5.5
2017-Nov-16 16:00N 40°40' W 074°00'0 0.0
2017-Nov-16 15:30N 40°40' W 074°00'0 0.0
2017-Nov-16 15:00N 40°40' W 074°00'0 0.0
2017-Nov-16 14:31N 40°40' W 074°00'0 0.0
2017-Nov-16 14:00N 40°40' W 074°00'0 0.0
2017-Nov-16 13:30N 40°40' W 074°00'0 0.0
2017-Nov-16 13:00N 40°40' W 074°00'0 0.0
2017-Nov-16 12:31N 40°40' W 074°00'1 1.1
2017-Nov-16 12:01N 40°40' W 074°01'3 6.5
2017-Nov-16 11:30N 40°39' W 074°05'0 0.0
2017-Nov-16 11:00N 40°39' W 074°05'2 3.1
2017-Nov-16 10:30N 40°39' W 074°03'0 0.6
2017-Nov-16 10:00N 40°40' W 074°03'0 0.0
2017-Nov-16 09:30N 40°40' W 074°03'0 0.1
2017-Nov-16 09:00N 40°40' W 074°03'0 0.3
2017-Nov-16 08:31N 40°39' W 074°03'0 0.1
2017-Nov-16 08:00N 40°39' W 074°03'3 6.3
2017-Nov-16 07:30N 40°36' W 074°03'2 2.9
2017-Nov-16 06:58N 40°35' W 074°02'1 2.8
2017-Nov-16 06:30N 40°34' W 074°02'2 3.7
2017-Nov-16 05:59N 40°32' W 074°01'2 4.0
2017-Nov-16 05:30N 40°31' W 073°59'5 3.5
2017-Nov-16 04:11N 40°28' W 073°54'1 4.0
2017-Nov-16 03:58N 40°27' W 073°54'38 7.1
2017-Nov-15 22:33N 39°49' W 073°58'0 7.1
2017-Nov-15 22:29N 39°49' W 073°58'4 7.0
2017-Nov-15 21:56N 39°45' W 073°59'4 6.8
2017-Nov-15 21:21N 39°42' W 074°01'2 6.8
2017-Nov-15 21:00N 39°39' W 074°02'4 6.6
2017-Nov-15 20:26N 39°36' W 074°04'3 6.6
2017-Nov-15 19:59N 39°33' W 074°06'3 6.6
2017-Nov-15 19:30N 39°31' W 074°08'43 6.3
2017-Nov-15 12:44N 38°58' W 074°43'2 6.5
2017-Nov-15 12:30N 38°56' W 074°44'18 3.9
2017-Nov-15 07:51N 38°58' W 075°07'4 5.3
2017-Nov-15 07:09N 39°01' W 075°10'0 1.2
2017-Nov-15 06:55N 39°01' W 075°10'4 6.3
2017-Nov-15 06:16N 39°05' W 075°11'2 8.6
2017-Nov-15 06:01N 39°07' W 075°13'5 9.3
2017-Nov-15 05:31N 39°11' W 075°16'5 9.8
2017-Nov-15 05:01N 39°15' W 075°20'510.1
2017-Nov-15 04:30N 39°19' W 075°24'5 9.5
2017-Nov-15 04:01N 39°22' W 075°28'5 9.0
2017-Nov-15 03:31N 39°26' W 075°32'4 7.8
2017-Nov-15 03:00N 39°30' W 075°34'4 7.8
2017-Nov-15 02:31N 39°33' W 075°33'4 7.1
2017-Nov-15 02:00N 39°37' W 075°35'3 6.3
2017-Nov-15 01:31N 39°39' W 075°33'3 6.4
2017-Nov-15 01:00N 39°42' W 075°31'3 6.3
2017-Nov-15 00:31N 39°45' W 075°29'3 6.2
2017-Nov-15 00:00N 39°48' W 075°27'2 3.4
2017-Nov-14 23:29N 39°48' W 075°25'0 0.1
2017-Nov-14 23:00N 39°48' W 075°25'0 0.3
2017-Nov-14 22:30N 39°48' W 075°25'0 0.1
2017-Nov-14 22:00N 39°48' W 075°25'0 0.0
2017-Nov-14 21:28N 39°48' W 075°25'0 0.0
2017-Nov-14 20:58N 39°48' W 075°25'0 0.4
2017-Nov-14 20:30N 39°48' W 075°25'1 1.2
2017-Nov-14 19:59N 39°49' W 075°24'0 0.0
2017-Nov-14 19:29N 39°49' W 075°24'0 0.0
2017-Nov-14 19:00N 39°49' W 075°24'0 0.0
2017-Nov-14 18:30N 39°49' W 075°24'0 0.0
2017-Nov-14 18:00N 39°49' W 075°24'0 0.0
2017-Nov-14 17:30N 39°49' W 075°24'0 0.0
2017-Nov-14 16:58N 39°49' W 075°24'0 0.0
2017-Nov-14 16:28N 39°49' W 075°24'0 0.0
2017-Nov-14 15:59N 39°49' W 075°24'0 0.0
2017-Nov-14 15:29N 39°49' W 075°24'0 0.0
2017-Nov-14 14:59N 39°49' W 075°24'0 0.0
2017-Nov-14 14:29N 39°49' W 075°24'0 0.0
2017-Nov-14 14:00N 39°49' W 075°24'0 0.0
2017-Nov-14 13:30N 39°49' W 075°24'0 0.0
2017-Nov-14 13:01N 39°49' W 075°24'0 0.0
2017-Nov-14 12:28N 39°49' W 075°24'0 0.0
2017-Nov-14 11:58N 39°49' W 075°24'0 0.0
2017-Nov-14 11:29N 39°49' W 075°24'0 0.0
2017-Nov-14 10:59N 39°49' W 075°24'0 0.0
2017-Nov-14 10:29N 39°49' W 075°24'0 0.0
2017-Nov-14 10:00N 39°49' W 075°24'0 0.0
2017-Nov-14 09:30N 39°49' W 075°24'0 0.0
2017-Nov-14 09:00N 39°49' W 075°24'0 0.0
2017-Nov-14 08:30N 39°49' W 075°24'0 0.0
2017-Nov-14 07:58N 39°49' W 075°24'0 0.0
2017-Nov-14 07:28N 39°49' W 075°24'0 0.0
2017-Nov-14 06:59N 39°49' W 075°24'0 0.0
2017-Nov-14 06:29N 39°49' W 075°24'0 0.0
2017-Nov-14 05:59N 39°49' W 075°24'0 0.0
2017-Nov-14 05:30N 39°49' W 075°24'0 0.0
2017-Nov-14 05:00N 39°49' W 075°24'0 0.0
2017-Nov-14 04:30N 39°49' W 075°24'0 0.0
2017-Nov-14 03:58N 39°49' W 075°24'0 0.0
2017-Nov-14 03:28N 39°49' W 075°24'0 0.0
2017-Nov-14 02:58N 39°49' W 075°24'0 0.0
2017-Nov-14 02:29N 39°49' W 075°24'0 0.0
2017-Nov-14 01:59N 39°49' W 075°24'0 0.0
2017-Nov-14 01:29N 39°49' W 075°24'0 0.0
2017-Nov-14 01:00N 39°49' W 075°24'0 0.0
2017-Nov-14 00:30N 39°49' W 075°24'0 0.0
2017-Nov-14 00:00N 39°49' W 075°24'0 0.0
2017-Nov-13 23:30N 39°49' W 075°24'0 0.0
2017-Nov-13 22:58N 39°49' W 075°24'0 0.0
2017-Nov-13 22:28N 39°49' W 075°24'0 0.0
2017-Nov-13 21:59N 39°49' W 075°24'8 0.4
2017-Nov-13 02:00N 39°43' W 075°31'0 0.0
2017-Nov-13 01:30N 39°43' W 075°31'0 0.0
2017-Nov-13 00:58N 39°43' W 075°31'0 0.0
2017-Nov-13 00:28N 39°43' W 075°31'0 0.0
2017-Nov-12 23:59N 39°43' W 075°31'0 0.0
2017-Nov-12 23:29N 39°43' W 075°31'0 0.0
2017-Nov-12 22:56N 39°43' W 075°31'0 0.0
2017-Nov-12 22:29N 39°43' W 075°31'0 0.0
2017-Nov-12 22:00N 39°43' W 075°31'0 0.0
2017-Nov-12 21:30N 39°43' W 075°31'0 0.0
2017-Nov-12 21:00N 39°43' W 075°31'0 0.0
2017-Nov-12 20:28N 39°43' W 075°31'0 0.0
2017-Nov-12 19:58N 39°43' W 075°31'0 0.0
2017-Nov-12 19:28N 39°43' W 075°31'0 0.0
2017-Nov-12 18:59N 39°43' W 075°31'0 0.0
2017-Nov-12 18:29N 39°43' W 075°31'0 0.0
2017-Nov-12 17:59N 39°43' W 075°31'0 0.0
2017-Nov-12 17:30N 39°43' W 075°31'0 0.0
2017-Nov-12 17:00N 39°43' W 075°31'0 0.0
2017-Nov-12 16:30N 39°43' W 075°31'0 0.0
2017-Nov-12 15:58N 39°43' W 075°31'0 0.0
2017-Nov-12 15:28N 39°43' W 075°31'0 0.0
2017-Nov-12 14:58N 39°43' W 075°31'0 0.0
2017-Nov-12 14:29N 39°43' W 075°31'0 0.0
2017-Nov-12 13:59N 39°43' W 075°31'0 0.0
2017-Nov-12 13:29N 39°43' W 075°31'0 0.0
2017-Nov-12 13:00N 39°43' W 075°31'1 2.8
2017-Nov-12 12:30N 39°44' W 075°30'4 9.0
2017-Nov-12 12:00N 39°48' W 075°26'4 8.5
2017-Nov-12 11:31N 39°50' W 075°22'4 7.9
2017-Nov-12 11:00N 39°51' W 075°17'3 6.4
2017-Nov-12 10:30N 39°52' W 075°13'0 0.1
2017-Nov-12 10:00N 39°52' W 075°13'0 0.0
2017-Nov-12 09:30N 39°52' W 075°13'0 0.1
2017-Nov-12 09:00N 39°52' W 075°13'0 0.1
2017-Nov-12 08:28N 39°52' W 075°13'0 0.0
2017-Nov-12 07:58N 39°52' W 075°13'0 0.0
2017-Nov-12 07:28N 39°52' W 075°13'0 0.0
2017-Nov-12 06:59N 39°52' W 075°13'0 0.0
2017-Nov-12 06:29N 39°52' W 075°13'0 0.0
2017-Nov-12 05:59N 39°52' W 075°13'0 0.0
2017-Nov-12 05:30N 39°52' W 075°13'0 0.0
2017-Nov-12 05:00N 39°52' W 075°13'0 0.0
2017-Nov-12 04:30N 39°52' W 075°13'0 0.0
2017-Nov-12 04:00N 39°52' W 075°13'0 0.0
2017-Nov-12 03:28N 39°52' W 075°13'0 0.1
2017-Nov-12 02:58N 39°52' W 075°13'0 0.1
2017-Nov-12 02:29N 39°52' W 075°13'0 0.0
2017-Nov-12 01:59N 39°52' W 075°13'0 0.1
2017-Nov-12 01:29N 39°52' W 075°13'0 0.1
2017-Nov-12 01:00N 39°52' W 075°13'0 0.0
2017-Nov-12 00:30N 39°52' W 075°13'0 0.0
2017-Nov-12 00:00N 39°52' W 075°13'0 0.0
2017-Nov-11 23:30N 39°52' W 075°13'0 0.0
2017-Nov-11 22:58N 39°52' W 075°13'0 0.0
2017-Nov-11 22:28N 39°52' W 075°13'0 0.0
2017-Nov-11 21:59N 39°52' W 075°13'0 0.0
2017-Nov-11 21:26N 39°52' W 075°13'0 0.0
2017-Nov-11 20:59N 39°52' W 075°13'0 0.0
2017-Nov-11 20:30N 39°52' W 075°13'0 0.1
2017-Nov-11 20:00N 39°52' W 075°13'0 0.1
2017-Nov-11 19:30N 39°52' W 075°13'0 0.1
2017-Nov-11 19:01N 39°52' W 075°13'0 0.0
2017-Nov-11 18:28N 39°52' W 075°13'0 0.0
2017-Nov-11 18:00N 39°52' W 075°13'0 0.0
2017-Nov-11 17:30N 39°52' W 075°13'0 0.0
2017-Nov-11 16:58N 39°52' W 075°13'0 0.0
2017-Nov-11 16:25N 39°52' W 075°13'0 0.0
2017-Nov-11 15:59N 39°52' W 075°13'0 0.0
2017-Nov-11 15:29N 39°52' W 075°13'0 0.0
2017-Nov-11 14:59N 39°52' W 075°13'0 0.0
2017-Nov-11 14:30N 39°52' W 075°13'0 0.1
2017-Nov-11 14:00N 39°52' W 075°13'0 0.0
2017-Nov-11 13:30N 39°52' W 075°13'0 0.0
2017-Nov-11 13:00N 39°52' W 075°13'0 0.1
2017-Nov-11 12:28N 39°52' W 075°13'0 0.0
2017-Nov-11 11:58N 39°52' W 075°13'0 0.0
2017-Nov-11 11:29N 39°52' W 075°13'0 0.0
2017-Nov-11 10:59N 39°52' W 075°13'0 0.0
2017-Nov-11 10:29N 39°52' W 075°13'0 0.0
2017-Nov-11 10:00N 39°52' W 075°13'0 0.0
2017-Nov-11 09:30N 39°52' W 075°13'0 0.0
2017-Nov-11 09:00N 39°52' W 075°13'0 0.0
2017-Nov-11 08:31N 39°52' W 075°13'0 0.0
2017-Nov-11 07:58N 39°52' W 075°13'0 0.1
2017-Nov-11 07:28N 39°52' W 075°13'0 0.0
2017-Nov-11 06:59N 39°52' W 075°13'0 0.1
2017-Nov-11 06:29N 39°52' W 075°13'0 0.0
2017-Nov-11 05:59N 39°52' W 075°13'0 0.0
2017-Nov-11 05:30N 39°52' W 075°13'0 0.0
2017-Nov-11 05:00N 39°52' W 075°13'0 0.0
2017-Nov-11 04:30N 39°52' W 075°13'0 0.0
2017-Nov-11 04:00N 39°52' W 075°13'0 0.0
2017-Nov-11 03:28N 39°52' W 075°13'0 0.0
2017-Nov-11 02:58N 39°52' W 075°13'0 0.0
2017-Nov-11 02:29N 39°52' W 075°13'0 0.0
2017-Nov-11 01:59N 39°52' W 075°13'0 0.0
2017-Nov-11 01:29N 39°52' W 075°13'0 0.0
2017-Nov-11 01:00N 39°52' W 075°13'0 0.0
2017-Nov-11 00:30N 39°52' W 075°13'0 0.0
2017-Nov-11 00:00N 39°52' W 075°13'0 0.1
2017-Nov-10 23:28N 39°52' W 075°13'0 0.0
2017-Nov-10 22:58N 39°52' W 075°13'0 0.1
2017-Nov-10 22:28N 39°52' W 075°13'0 0.0
2017-Nov-10 21:59N 39°52' W 075°13'0 0.0
2017-Nov-10 21:26N 39°52' W 075°13'0 0.0
2017-Nov-10 20:59N 39°52' W 075°13'0 0.0
2017-Nov-10 20:30N 39°52' W 075°13'0 0.1
2017-Nov-10 19:57N 39°52' W 075°13'0 0.0
2017-Nov-10 19:30N 39°52' W 075°13'0 0.0
2017-Nov-10 18:58N 39°52' W 075°13'0 0.0
2017-Nov-10 18:28N 39°52' W 075°13'0 0.1
2017-Nov-10 17:58N 39°52' W 075°13'0 0.0
2017-Nov-10 17:29N 39°52' W 075°13'0 0.0
2017-Nov-10 16:59N 39°52' W 075°13'0 0.0
2017-Nov-10 16:29N 39°52' W 075°13'0 0.0
2017-Nov-10 16:00N 39°52' W 075°13'0 0.1
2017-Nov-10 15:30N 39°52' W 075°13'0 0.0
2017-Nov-10 15:00N 39°52' W 075°13'0 0.0
2017-Nov-10 14:28N 39°52' W 075°13'0 0.0
2017-Nov-10 13:58N 39°52' W 075°13'0 0.0
2017-Nov-10 13:28N 39°52' W 075°13'0 0.0
2017-Nov-10 12:59N 39°52' W 075°13'0 0.0
2017-Nov-10 12:29N 39°52' W 075°13'0 0.1
2017-Nov-10 11:59N 39°52' W 075°13'0 0.1
2017-Nov-10 11:30N 39°52' W 075°13'0 0.0
2017-Nov-10 11:00N 39°52' W 075°13'0 0.0
2017-Nov-10 10:30N 39°52' W 075°13'0 0.0
2017-Nov-10 09:58N 39°52' W 075°13'0 0.0
2017-Nov-10 09:28N 39°52' W 075°13'0 0.0
2017-Nov-10 08:58N 39°52' W 075°13'0 0.0
2017-Nov-10 08:29N 39°52' W 075°13'0 0.0
2017-Nov-10 07:59N 39°52' W 075°13'0 0.0
2017-Nov-10 07:29N 39°52' W 075°13'0 0.0
2017-Nov-10 07:00N 39°52' W 075°13'0 0.1
2017-Nov-10 06:30N 39°52' W 075°13'0 0.0
2017-Nov-10 06:00N 39°52' W 075°13'0 0.1
2017-Nov-10 05:28N 39°52' W 075°13'0 0.0
2017-Nov-10 04:58N 39°52' W 075°13'0 0.1
2017-Nov-10 04:28N 39°52' W 075°13'0 0.1
2017-Nov-10 03:59N 39°52' W 075°13'0 0.1
2017-Nov-10 03:29N 39°52' W 075°13'0 0.0
2017-Nov-10 02:59N 39°52' W 075°13'0 0.0
2017-Nov-10 02:30N 39°52' W 075°13'0 0.0
2017-Nov-10 02:00N 39°52' W 075°13'0 0.0
2017-Nov-10 01:30N 39°52' W 075°13'0 0.1
2017-Nov-10 00:58N 39°52' W 075°13'  

Dump ship's entire track history